Time;durP1;ratioP1;P1;durP2;ratioP2;P2;SDS_P1;SDS_P2;PMS_P1;PMS_P2;Temp;Humidity;BMP_temperature;BMP_pressure;BME280_temperature;BME280_humidity;BME280_pressure;Samples;Min_cycle;Max_cycle;Signal;HPM_P1;HPM_P2
2022/08/14 00:00:49;;;;;;;1.95;1.42;;;19.20;47.50;;;;;;5043910;28;20029;-59
2022/08/14 00:03:25;;;;;;;4.53;1.30;;;19.10;47.80;;;;;;5080434;28;20048;-60
2022/08/14 00:05:52;;;;;;;1.98;1.17;;;19.10;48.50;;;;;;5042260;28;20182;-59
2022/08/14 00:08:18;;;;;;;3.90;1.33;;;19.10;47.90;;;;;;5080124;28;20021;-60
2022/08/14 00:10:44;;;;;;;5.32;1.20;;;19.00;48.10;;;;;;5065758;28;20108;-60
2022/08/14 00:13:10;;;;;;;2.00;1.20;;;19.00;48.40;;;;;;5060366;28;20021;-59
2022/08/14 00:15:40;;;;;;;1.63;1.38;;;18.90;48.40;;;;;;5063069;28;20399;-59
2022/08/14 00:18:08;;;;;;;1.42;1.33;;;18.90;48.90;;;;;;5052392;28;20048;-59
2022/08/14 00:20:36;;;;;;;2.13;1.40;;;18.90;48.90;;;;;;5057271;28;20039;-60
2022/08/14 00:23:04;;;;;;;1.70;1.35;;;18.90;49.10;;;;;;5062458;28;20075;-60
2022/08/14 00:25:30;;;;;;;1.25;1.15;;;18.80;49.20;;;;;;5067351;28;20020;-60
2022/08/14 00:27:56;;;;;;;1.15;1.10;;;18.80;49.10;;;;;;5059126;28;20051;-59
2022/08/14 00:30:21;;;;;;;3.05;1.45;;;18.70;49.20;;;;;;5061110;28;20025;-59
2022/08/14 00:32:47;;;;;;;3.00;1.40;;;18.70;49.20;;;;;;5080370;28;20433;-60
2022/08/14 00:35:13;;;;;;;1.55;1.35;;;18.70;49.20;;;;;;5038192;28;20032;-60
2022/08/14 00:37:44;;;;;;;2.13;1.30;;;18.70;49.30;;;;;;5061036;28;20056;-61
2022/08/14 00:40:17;;;;;;;1.20;1.10;;;18.60;49.80;;;;;;5058375;28;20061;-59
2022/08/14 00:42:43;;;;;;;1.48;1.30;;;18.60;49.50;;;;;;5050213;28;20121;-59
2022/08/14 00:45:11;;;;;;;1.30;1.20;;;18.60;49.40;;;;;;5059977;28;20032;-60
2022/08/14 00:47:37;;;;;;;3.92;1.30;;;18.50;49.50;;;;;;5061026;28;20087;-60
2022/08/14 00:50:06;;;;;;;6.57;1.50;;;18.50;49.60;;;;;;5057967;28;20029;-61
2022/08/14 00:52:32;;;;;;;2.50;1.25;;;18.40;49.90;;;;;;5077872;28;20032;-61
2022/08/14 00:54:58;;;;;;;4.13;1.42;;;18.40;49.90;;;;;;5059300;28;20024;-60
2022/08/14 00:57:27;;;;;;;1.88;1.50;;;18.40;50.00;;;;;;5061540;28;20372;-61
2022/08/14 00:59:55;;;;;;;2.75;1.50;;;18.30;50.20;;;;;;5065363;28;20044;-60
2022/08/14 01:02:23;;;;;;;2.00;1.30;;;18.30;50.40;;;;;;5060455;28;20029;-59
2022/08/14 01:04:51;;;;;;;2.47;1.40;;;18.20;50.40;;;;;;5074224;28;20058;-60
2022/08/14 01:07:20;;;;;;;2.53;1.60;;;18.20;50.50;;;;;;5065450;28;20108;-62
2022/08/14 01:09:55;;;;;;;4.95;1.40;;;18.20;50.70;;;;;;5069130;28;20118;-61
2022/08/14 01:12:22;;;;;;;3.20;1.90;;;18.20;50.90;;;;;;5053167;28;20045;-59
2022/08/14 01:14:51;;;;;;;1.85;1.73;;;18.10;50.70;;;;;;5065389;28;20539;-58
2022/08/14 01:17:17;;;;;;;1.75;1.60;;;18.10;50.60;;;;;;5065994;28;20035;-62
2022/08/14 01:22:27;;;;;;;2.63;1.88;;;18.10;50.90;;;;;;5066296;28;20091;-60
2022/08/14 01:24:53;;;;;;;2.25;1.63;;;18.10;50.70;;;;;;5051511;28;20025;-61
2022/08/14 01:27:21;;;;;;;2.28;1.52;;;18.10;50.90;;;;;;5077558;28;20115;-59
2022/08/14 01:29:50;;;;;;;3.28;1.70;;;18.00;51.70;;;;;;5064937;28;20050;-60
2022/08/14 01:32:20;;;;;;;2.25;1.23;;;18.00;51.00;;;;;;5066623;28;20037;-61
2022/08/14 01:34:49;;;;;;;2.38;1.50;;;17.90;51.30;;;;;;5072472;28;20709;-60
2022/08/14 01:37:15;;;;;;;3.10;1.50;;;17.90;51.10;;;;;;5070898;28;20040;-62
2022/08/14 01:39:41;;;;;;;1.88;1.50;;;17.90;51.10;;;;;;5065354;28;20040;-60
2022/08/14 01:42:07;;;;;;;4.13;1.65;;;17.80;51.30;;;;;;5071775;28;20545;-59
2022/08/14 01:44:34;;;;;;;3.20;1.67;;;17.80;51.40;;;;;;5065000;28;20092;-60
2022/08/14 01:47:08;;;;;;;2.25;1.55;;;17.70;51.60;;;;;;5065457;28;20037;-59
2022/08/14 01:49:34;;;;;;;1.67;1.45;;;17.70;52.00;;;;;;5069685;28;20021;-60
2022/08/14 01:52:00;;;;;;;5.22;1.50;;;17.70;51.90;;;;;;5076766;28;20092;-59
2022/08/14 01:54:27;;;;;;;2.67;1.60;;;17.60;52.00;;;;;;5077074;28;20028;-59
2022/08/14 01:56:55;;;;;;;1.70;1.60;;;17.60;52.10;;;;;;5065686;28;20502;-59
2022/08/14 01:59:27;;;;;;;3.13;1.50;;;17.50;52.30;;;;;;5077828;28;20032;-59
2022/08/14 02:01:55;;;;;;;2.03;1.27;;;17.50;52.20;;;;;;5061159;28;20048;-59
2022/08/14 02:04:24;;;;;;;2.05;1.50;;;17.50;52.10;;;;;;5064866;28;20478;-61
2022/08/14 02:06:51;;;;;;;2.30;1.48;;;17.50;52.20;;;;;;5077457;28;20032;-60
2022/08/14 02:09:18;;;;;;;1.50;1.40;;;17.40;52.30;;;;;;5063973;28;20419;-59
2022/08/14 02:11:45;;;;;;;1.60;1.50;;;17.40;52.40;;;;;;5066172;28;20121;-58
2022/08/14 02:14:12;;;;;;;2.15;1.60;;;17.30;52.40;;;;;;5063755;28;20089;-60
2022/08/14 02:16:44;;;;;;;2.10;1.60;;;17.30;52.70;;;;;;5064639;28;20032;-60
2022/08/14 02:19:22;;;;;;;2.05;1.70;;;17.30;52.80;;;;;;5063297;28;20048;-59
2022/08/14 02:21:50;;;;;;;2.03;1.60;;;17.30;53.40;;;;;;5060327;28;20029;-60
2022/08/14 02:24:20;;;;;;;4.30;1.40;;;17.30;52.80;;;;;;5070878;28;20033;-61
2022/08/14 02:26:49;;;;;;;1.83;1.40;;;17.20;52.80;;;;;;5062231;28;20055;-59
2022/08/14 02:29:20;;;;;;;1.95;1.80;;;17.20;52.90;;;;;;5081682;28;20032;-59
2022/08/14 02:31:49;;;;;;;2.42;1.65;;;17.20;53.30;;;;;;5070597;28;20052;-60
2022/08/14 02:34:18;;;;;;;1.60;1.50;;;17.10;53.20;;;;;;5063326;28;20033;-58
2022/08/14 02:36:46;;;;;;;2.03;1.50;;;17.10;53.30;;;;;;5064206;28;20088;-60
2022/08/14 02:39:13;;;;;;;2.10;1.40;;;17.10;53.20;;;;;;5077316;28;20100;-60
2022/08/14 02:41:39;;;;;;;2.15;1.58;;;17.10;53.30;;;;;;5065748;28;20034;-60
2022/08/14 02:44:09;;;;;;;4.30;1.77;;;17.10;53.40;;;;;;5063016;28;20458;-60
2022/08/14 02:46:35;;;;;;;1.67;1.50;;;17.00;53.50;;;;;;5073190;28;20047;-60
2022/08/14 02:49:01;;;;;;;1.88;1.60;;;17.00;53.50;;;;;;5065315;28;20016;-60
2022/08/14 02:51:28;;;;;;;2.10;1.70;;;17.10;53.60;;;;;;5056725;28;20040;-60
2022/08/14 02:53:55;;;;;;;2.78;1.85;;;17.00;53.50;;;;;;5062309;28;20135;-59
2022/08/14 02:56:21;;;;;;;2.65;1.67;;;17.00;53.60;;;;;;5066140;28;20060;-61
2022/08/14 02:58:50;;;;;;;1.95;1.70;;;17.00;53.70;;;;;;5063299;28;20039;-60
2022/08/14 03:01:18;;;;;;;2.42;1.50;;;17.00;53.90;;;;;;5061953;28;20036;-60
2022/08/14 03:03:44;;;;;;;1.92;1.67;;;17.00;53.90;;;;;;5081610;28;20144;-61
2022/08/14 03:06:12;;;;;;;3.42;1.73;;;16.90;53.80;;;;;;5065341;28;20037;-59
2022/08/14 03:08:38;;;;;;;3.08;1.75;;;16.90;53.90;;;;;;5070611;28;20024;-61
2022/08/14 03:11:09;;;;;;;2.33;1.83;;;16.90;54.00;;;;;;5072310;28;20115;-60
2022/08/14 03:13:41;;;;;;;1.92;1.77;;;16.90;54.20;;;;;;5049940;28;20492;-59
2022/08/14 03:16:13;;;;;;;3.17;1.90;;;16.90;54.00;;;;;;5054654;28;20577;-59
2022/08/14 03:18:43;;;;;;;1.70;1.55;;;16.90;54.10;;;;;;5045024;28;20110;-61
2022/08/14 03:21:12;;;;;;;7.40;1.50;;;16.80;54.00;;;;;;5072808;28;20029;-59
2022/08/14 03:23:42;;;;;;;5.13;1.90;;;16.80;54.10;;;;;;5061362;28;20120;-59
2022/08/14 03:26:10;;;;;;;2.88;1.38;;;16.80;54.30;;;;;;5074682;28;20031;-59
2022/08/14 03:28:39;;;;;;;2.17;1.23;;;16.80;54.20;;;;;;5078626;28;20047;-59
2022/08/14 03:31:05;;;;;;;1.98;1.50;;;16.70;54.20;;;;;;5070219;28;20025;-59
2022/08/14 03:33:31;;;;;;;2.92;1.30;;;16.70;54.30;;;;;;5077462;28;20079;-59
2022/08/14 03:35:58;;;;;;;2.33;1.63;;;16.70;54.40;;;;;;5064951;28;20025;-58
2022/08/14 03:38:24;;;;;;;1.90;1.58;;;16.70;54.40;;;;;;5065961;28;20094;-59
2022/08/14 03:40:50;;;;;;;1.70;1.60;;;16.70;54.60;;;;;;5070562;28;20037;-59
2022/08/14 03:43:15;;;;;;;1.60;1.50;;;16.60;54.70;;;;;;5078789;28;20116;-62
2022/08/14 03:45:43;;;;;;;1.45;1.35;;;16.60;54.60;;;;;;5073245;28;20552;-59
2022/08/14 03:48:18;;;;;;;1.80;1.70;;;16.60;54.60;;;;;;5077682;28;20373;-60
2022/08/14 03:50:45;;;;;;;2.13;1.70;;;16.60;55.20;;;;;;5060896;28;20146;-59
2022/08/14 03:53:12;;;;;;;2.20;1.58;;;16.50;54.80;;;;;;5066013;28;20068;-59
2022/08/14 03:55:37;;;;;;;4.07;1.48;;;16.50;54.80;;;;;;5062880;28;20033;-59
2022/08/14 03:58:06;;;;;;;4.28;1.80;;;16.60;54.90;;;;;;5062832;28;20564;-59
2022/08/14 04:00:33;;;;;;;5.32;1.60;;;16.60;54.90;;;;;;5075044;28;20033;-59
2022/08/14 04:02:59;;;;;;;1.73;1.60;;;16.50;54.80;;;;;;5067481;28;20043;-59
2022/08/14 04:05:25;;;;;;;2.60;1.67;;;16.50;55.00;;;;;;5043383;28;20036;-59
2022/08/14 04:07:50;;;;;;;5.00;1.60;;;16.40;54.80;;;;;;5077632;28;20032;-59
2022/08/14 04:10:17;;;;;;;1.85;1.60;;;16.40;54.80;;;;;;5062993;28;20036;-58
2022/08/14 04:12:43;;;;;;;3.00;1.60;;;16.40;55.10;;;;;;5062271;28;20640;-60
2022/08/14 04:15:10;;;;;;;3.33;1.88;;;16.40;55.10;;;;;;5058730;28;20033;-60
2022/08/14 04:17:36;;;;;;;1.52;1.42;;;16.30;55.20;;;;;;5066682;28;20478;-59
2022/08/14 04:20:05;;;;;;;4.05;1.73;;;16.30;55.20;;;;;;5060813;28;20045;-59
2022/08/14 04:22:32;;;;;;;4.82;1.70;;;16.30;55.50;;;;;;5062781;28;20036;-59
2022/08/14 04:25:00;;;;;;;1.98;1.77;;;16.30;55.50;;;;;;5073043;28;20034;-59
2022/08/14 04:27:26;;;;;;;1.83;1.73;;;16.30;55.50;;;;;;5060583;28;20025;-60
2022/08/14 04:29:52;;;;;;;2.50;1.50;;;16.30;55.60;;;;;;5070492;28;20052;-59
2022/08/14 04:32:21;;;;;;;2.70;1.92;;;16.30;55.60;;;;;;5052463;28;20030;-59
2022/08/14 04:34:47;;;;;;;1.67;1.40;;;16.30;55.70;;;;;;5074421;28;20085;-58
2022/08/14 04:45:35;;;;;;;2.78;1.73;;;16.30;55.70;;;;;;5057133;28;20052;-58
2022/08/14 04:48:14;;;;;;;3.08;2.00;;;16.20;55.70;;;;;;5063259;28;20036;-59
2022/08/14 04:50:49;;;;;;;2.70;1.88;;;16.20;55.80;;;;;;4969633;28;20025;-58
2022/08/14 04:53:19;;;;;;;1.70;1.60;;;16.20;56.00;;;;;;5076119;28;20553;-60
2022/08/14 04:55:47;;;;;;;2.92;1.98;;;16.30;55.90;;;;;;5062199;28;20096;-59
2022/08/14 04:58:14;;;;;;;2.08;1.75;;;16.30;55.90;;;;;;5054553;28;20033;-59
2022/08/14 05:00:40;;;;;;;2.28;1.80;;;16.30;56.10;;;;;;5062941;28;20096;-60
2022/08/14 05:03:06;;;;;;;2.95;2.05;;;16.30;56.20;;;;;;5071699;28;20574;-60
2022/08/14 05:05:32;;;;;;;3.20;1.73;;;16.40;56.30;;;;;;5060931;28;20036;-59
2022/08/14 05:08:11;;;;;;;2.17;1.98;;;16.50;56.20;;;;;;5082195;28;20089;-60
2022/08/14 05:10:42;;;;;;;2.08;1.88;;;16.50;56.70;;;;;;5059626;28;20051;-59
2022/08/14 05:13:09;;;;;;;4.90;1.90;;;16.60;56.50;;;;;;5077058;28;20035;-59
2022/08/14 05:15:37;;;;;;;2.33;1.98;;;16.70;56.30;;;;;;5064205;28;20398;-59
2022/08/14 05:18:11;;;;;;;1.92;1.73;;;16.80;56.40;;;;;;5060128;28;20033;-61
2022/08/14 05:20:42;;;;;;;;;;;16.80;56.60;;;;;;5065013;28;20028;-59
2022/08/14 05:23:08;;;;;;;1.60;1.50;;;17.00;55.90;;;;;;5061775;28;19940;-59
2022/08/14 05:25:35;;;;;;;2.13;1.85;;;17.10;55.50;;;;;;5064248;28;20036;-59
2022/08/14 05:28:17;;;;;;;1.80;1.65;;;17.20;55.70;;;;;;5074906;28;20502;-58
2022/08/14 05:31:05;;;;;;;2.95;2.15;;;17.30;55.80;;;;;;5061355;28;20032;-59
2022/08/14 05:33:33;;;;;;;9.02;1.70;;;17.40;55.50;;;;;;5060354;28;20153;-60
2022/08/14 05:36:01;;;;;;;2.35;1.92;;;17.50;55.50;;;;;;5069125;28;20143;-60
2022/08/14 05:38:32;;;;;;;2.38;1.95;;;17.60;55.60;;;;;;5048578;28;20036;-58
2022/08/14 05:41:16;;;;;;;2.20;1.95;;;17.70;55.50;;;;;;5060608;28;20052;-58
2022/08/14 05:43:44;;;;;;;2.13;1.80;;;17.90;55.70;;;;;;5058192;28;20090;-59
2022/08/14 05:46:11;;;;;;;3.00;2.05;;;18.00;55.00;;;;;;5072234;28;20116;-60
2022/08/14 05:48:38;;;;;;;2.72;2.25;;;18.10;55.10;;;;;;5053106;28;20048;-60
2022/08/14 05:51:04;;;;;;;2.92;2.03;;;18.20;54.90;;;;;;4950966;28;20078;-59
2022/08/14 05:53:30;;;;;;;2.42;1.88;;;18.30;54.80;;;;;;5070949;28;20032;-59
2022/08/14 05:55:57;;;;;;;4.10;1.83;;;18.40;54.70;;;;;;5065033;28;20048;-60
2022/08/14 05:58:24;;;;;;;4.60;2.38;;;18.60;54.40;;;;;;5046923;28;20048;-60
2022/08/14 06:00:50;;;;;;;3.65;2.10;;;18.80;54.20;;;;;;5078748;28;20052;-59
2022/08/14 06:03:19;;;;;;;4.45;1.80;;;18.90;54.10;;;;;;5064183;28;20399;-59
2022/08/14 06:05:47;;;;;;;2.40;1.95;;;19.00;54.00;;;;;;5065259;28;20032;-59
2022/08/14 06:08:27;;;;;;;1.83;1.65;;;19.20;53.80;;;;;;5065122;28;20036;-59
2022/08/14 06:10:55;;;;;;;3.80;2.05;;;19.30;53.90;;;;;;5061823;28;20029;-59
2022/08/14 06:13:21;;;;;;;3.28;1.83;;;19.40;53.50;;;;;;5060294;28;20017;-59
2022/08/14 06:15:49;;;;;;;2.90;2.17;;;19.50;53.40;;;;;;5048875;28;20092;-59
2022/08/14 06:18:16;;;;;;;2.13;1.85;;;19.70;53.30;;;;;;5064740;28;20095;-58
2022/08/14 06:20:43;;;;;;;3.75;2.30;;;19.80;53.20;;;;;;5068206;28;20064;-58
2022/08/14 06:23:08;;;;;;;3.28;1.92;;;19.90;53.00;;;;;;5061717;28;20033;-59
2022/08/14 06:25:34;;;;;;;4.30;1.90;;;20.00;53.00;;;;;;5072461;28;20036;-59
2022/08/14 06:28:00;;;;;;;5.75;2.05;;;20.20;52.80;;;;;;5071053;28;20082;-60
2022/08/14 06:30:28;;;;;;;4.10;2.38;;;20.30;52.60;;;;;;5070960;28;20040;-61
2022/08/14 06:32:54;;;;;;;5.57;2.17;;;20.50;52.40;;;;;;5070904;28;20017;-59
2022/08/14 06:35:21;;;;;;;2.55;2.00;;;20.60;52.10;;;;;;5054561;28;20036;-60
2022/08/14 06:37:48;;;;;;;7.40;2.10;;;20.70;51.80;;;;;;5061462;28;20100;-59
2022/08/14 06:40:17;;;;;;;4.60;2.17;;;20.90;51.60;;;;;;5065359;28;20092;-60
2022/08/14 06:42:43;;;;;;;3.72;1.65;;;21.00;51.40;;;;;;5061916;28;20085;-59
2022/08/14 06:45:09;;;;;;;3.85;2.30;;;21.20;51.20;;;;;;5067581;28;20052;-60
2022/08/14 06:47:37;;;;;;;4.10;2.28;;;21.40;51.10;;;;;;5064639;28;20061;-60
2022/08/14 06:50:09;;;;;;;4.70;2.85;;;21.60;51.00;;;;;;5070448;28;20116;-60
2022/08/14 06:52:35;;;;;;;4.15;2.67;;;21.70;51.00;;;;;;5063214;28;20083;-59
2022/08/14 06:55:00;;;;;;;3.08;2.50;;;21.90;50.60;;;;;;5071935;28;20523;-59
2022/08/14 06:57:38;;;;;;;5.60;2.50;;;22.00;50.40;;;;;;5080532;28;20494;-60
2022/08/14 07:00:09;;;;;;;4.75;2.78;;;22.20;50.30;;;;;;5072844;28;20040;-60
2022/08/14 07:08:04;;;;;;;5.47;2.42;;;22.60;49.90;;;;;;5073440;28;20807;-61
2022/08/14 07:10:30;;;;;;;4.32;2.58;;;22.80;49.80;;;;;;5076889;28;20024;-61
2022/08/14 07:12:57;;;;;;;3.45;2.58;;;22.90;49.70;;;;;;5081580;28;20036;-60
2022/08/14 07:15:22;;;;;;;7.15;3.05;;;23.00;49.90;;;;;;5065512;28;20028;-58
2022/08/14 07:17:50;;;;;;;3.22;2.92;;;23.20;49.90;;;;;;5081069;28;20079;-60
2022/08/14 07:20:19;;;;;;;2.35;2.15;;;23.30;49.70;;;;;;5081750;28;20063;-59
2022/08/14 07:22:48;;;;;;;4.93;2.80;;;23.50;49.50;;;;;;5079195;28;20054;-59
2022/08/14 07:25:14;;;;;;;3.45;2.55;;;23.70;49.20;;;;;;5081343;28;20062;-59
2022/08/14 07:27:40;;;;;;;3.28;2.60;;;23.80;48.50;;;;;;5080850;28;20112;-59
2022/08/14 07:30:06;;;;;;;7.10;2.65;;;24.00;48.40;;;;;;5083241;28;20043;-60
2022/08/14 07:32:32;;;;;;;3.35;2.80;;;24.10;47.60;;;;;;5078440;28;20033;-60
2022/08/14 07:34:58;;;;;;;2.78;2.38;;;24.30;47.50;;;;;;5083500;28;20067;-59
2022/08/14 07:37:23;;;;;;;4.05;2.55;;;24.40;47.40;;;;;;5082502;28;20033;-60
2022/08/14 07:39:50;;;;;;;3.17;2.53;;;24.50;47.00;;;;;;5062396;28;20036;-59
2022/08/14 07:42:16;;;;;;;6.57;4.55;;;24.70;46.80;;;;;;5081200;28;20028;-60
2022/08/14 07:44:42;;;;;;;4.35;3.10;;;24.80;46.40;;;;;;5075295;28;20036;-60
2022/08/14 07:47:08;;;;;;;6.20;2.63;;;25.00;45.70;;;;;;5078690;28;20024;-60
2022/08/14 07:49:34;;;;;;;5.03;2.58;;;25.10;45.90;;;;;;5079614;28;20436;-60
2022/08/14 07:52:03;;;;;;;5.10;3.10;;;25.30;45.80;;;;;;5081172;28;20031;-60
2022/08/14 07:54:30;;;;;;;2.63;2.35;;;25.40;45.40;;;;;;5082684;28;20036;-61
2022/08/14 07:57:00;;;;;;;4.30;2.60;;;25.50;45.50;;;;;;5081367;28;20061;-60
2022/08/14 07:59:26;;;;;;;3.75;2.50;;;25.70;44.80;;;;;;5062835;28;20056;-60
2022/08/14 08:01:52;;;;;;;5.03;2.58;;;25.80;44.80;;;;;;5064878;28;20025;-60
2022/08/14 08:04:26;;;;;;;2.95;2.50;;;25.90;44.50;;;;;;5064932;28;20099;-60
2022/08/14 08:06:52;;;;;;;3.95;2.42;;;26.10;43.90;;;;;;5062084;28;20028;-60
2022/08/14 08:09:22;;;;;;;4.43;2.58;;;26.20;44.10;;;;;;5062804;28;20028;-59
2022/08/14 08:11:53;;;;;;;4.45;2.40;;;26.20;44.20;;;;;;5049983;28;20124;-58
2022/08/14 08:14:19;;;;;;;6.72;2.90;;;26.40;44.10;;;;;;5057451;28;20032;-59
2022/08/14 08:16:46;;;;;;;4.10;2.63;;;26.50;43.90;;;;;;5061040;28;20274;-59
2022/08/14 08:19:12;;;;;;;3.25;2.50;;;26.60;43.90;;;;;;5066423;28;20055;-59
2022/08/14 08:21:40;;;;;;;3.97;2.92;;;26.70;43.30;;;;;;5064942;28;20025;-60
2022/08/14 08:24:06;;;;;;;4.32;2.60;;;26.70;43.30;;;;;;5056034;28;20039;-59
2022/08/14 08:26:32;;;;;;;3.28;2.40;;;26.80;42.80;;;;;;5065752;28;20099;-59
2022/08/14 08:28:59;;;;;;;2.88;2.33;;;26.90;43.20;;;;;;5070373;28;20037;-60
2022/08/14 08:31:25;;;;;;;3.33;2.25;;;27.00;42.90;;;;;;5068195;28;20025;-59
2022/08/14 08:33:51;;;;;;;5.00;2.58;;;27.10;42.60;;;;;;5074681;28;20051;-60
2022/08/14 08:36:18;;;;;;;5.05;2.60;;;27.20;42.70;;;;;;5070665;28;20036;-60
2022/08/14 08:38:48;;;;;;;7.88;2.55;;;27.30;42.30;;;;;;5069326;28;20097;-59
2022/08/14 08:41:14;;;;;;;3.20;2.40;;;27.40;41.90;;;;;;5062431;28;20059;-60
2022/08/14 08:43:40;;;;;;;4.60;2.17;;;27.50;41.70;;;;;;5070157;28;20033;-61
2022/08/14 08:46:14;;;;;;;6.28;2.15;;;27.70;41.50;;;;;;5074652;28;20438;-60
2022/08/14 08:48:53;;;;;;;5.70;2.20;;;27.80;41.00;;;;;;5065057;28;20057;-60
2022/08/14 08:51:31;;;;;;;1.90;1.67;;;27.90;40.50;;;;;;5062152;28;20074;-59
2022/08/14 08:53:59;;;;;;;2.90;1.70;;;28.00;39.60;;;;;;5063888;28;20033;-59
2022/08/14 08:56:40;;;;;;;3.58;1.60;;;28.20;39.20;;;;;;5069265;28;20057;-60
2022/08/14 08:59:35;;;;;;;2.00;1.40;;;28.30;38.90;;;;;;5078536;28;20048;-60
2022/08/14 09:02:06;;;;;;;2.50;1.45;;;28.40;38.40;;;;;;5061321;28;20064;-59
2022/08/14 09:04:46;;;;;;;3.17;1.27;;;28.50;38.10;;;;;;5080623;28;20029;-60
2022/08/14 09:07:13;;;;;;;1.63;1.38;;;28.60;37.80;;;;;;5063834;28;20025;-60
2022/08/14 09:09:51;;;;;;;2.50;1.73;;;28.80;38.20;;;;;;5067131;28;20051;-60
2022/08/14 09:12:18;;;;;;;7.22;2.03;;;28.90;37.80;;;;;;5056951;28;20040;-61
2022/08/14 09:14:46;;;;;;;2.40;1.50;;;29.10;37.30;;;;;;5063520;28;20024;-60
2022/08/14 09:17:12;;;;;;;2.85;2.00;;;29.20;37.20;;;;;;5065434;28;20055;-59
2022/08/14 09:19:39;;;;;;;2.05;1.50;;;29.20;36.90;;;;;;5072969;28;20037;-60
2022/08/14 09:22:09;;;;;;;6.70;1.60;;;29.40;37.10;;;;;;5079212;28;20280;-60
2022/08/14 09:24:35;;;;;;;1.98;1.30;;;29.50;36.00;;;;;;5080971;28;20545;-59
2022/08/14 09:27:01;;;;;;;3.50;1.50;;;29.50;35.90;;;;;;5081383;28;20054;-59
2022/08/14 09:29:27;;;;;;;1.48;1.35;;;29.60;35.80;;;;;;5085129;28;20111;-60
2022/08/14 09:31:59;;;;;;;4.88;1.30;;;29.70;36.20;;;;;;5083711;28;20029;-59
2022/08/14 09:34:53;;;;;;;2.33;1.40;;;29.70;35.00;;;;;;5082908;28;20055;-59
2022/08/14 09:37:37;;;;;;;1.83;1.20;;;29.80;35.10;;;;;;5076335;28;20080;-59
2022/08/14 09:40:18;;;;;;;;;;;29.90;34.70;;;;;;5077111;28;20048;-59
2022/08/14 09:43:09;;;;;;;1.92;1.30;;;30.10;35.00;;;;;;5080872;28;20013;-60
2022/08/14 09:45:57;;;;;;;8.27;1.48;;;30.20;34.60;;;;;;5082440;28;20020;-59
2022/08/14 09:48:25;;;;;;;1.55;1.30;;;30.20;33.70;;;;;;5081358;28;20035;-60
2022/08/14 09:50:55;;;;;;;1.52;1.42;;;30.30;34.80;;;;;;5081083;28;20024;-60
2022/08/14 09:53:47;;;;;;;2.28;1.55;;;30.40;34.20;;;;;;5081227;28;20418;-60
2022/08/14 09:56:13;;;;;;;3.80;1.58;;;30.40;33.90;;;;;;5078607;28;20037;-60
2022/08/14 09:58:43;;;;;;;1.67;1.40;;;30.50;34.50;;;;;;5082949;28;20039;-60
2022/08/14 10:01:20;;;;;;;2.35;1.50;;;30.50;34.00;;;;;;5078264;28;20052;-62
2022/08/14 10:03:55;;;;;;;1.50;1.40;;;30.60;34.10;;;;;;5082798;28;20102;-60
2022/08/14 10:06:26;;;;;;;2.65;1.70;;;30.70;34.20;;;;;;5080723;28;20020;-60
2022/08/14 10:08:54;;;;;;;1.75;1.50;;;30.70;33.10;;;;;;5077270;28;20016;-62
2022/08/14 10:11:21;;;;;;;4.28;1.80;;;30.80;34.20;;;;;;5080759;28;20025;-61
2022/08/14 10:14:01;;;;;;;2.60;1.95;;;30.90;34.50;;;;;;5081127;28;20029;-62
2022/08/14 10:16:29;;;;;;;1.92;1.60;;;30.90;33.40;;;;;;5082678;28;20058;-61
2022/08/14 10:19:13;;;;;;;2.45;1.40;;;31.00;33.60;;;;;;5083579;28;20044;-60
2022/08/14 10:21:42;;;;;;;2.25;1.52;;;31.10;33.10;;;;;;5080377;28;20106;-61
2022/08/14 10:24:22;;;;;;;7.85;1.50;;;31.20;33.40;;;;;;5083802;28;20017;-61
2022/08/14 10:26:59;;;;;;;2.35;1.40;;;31.20;32.50;;;;;;5074933;28;20039;-62
2022/08/14 10:29:37;;;;;;;1.52;1.40;;;31.30;32.40;;;;;;5084802;28;20069;-60
2022/08/14 10:32:03;;;;;;;2.17;1.70;;;31.40;32.90;;;;;;5079816;28;20024;-61
2022/08/14 10:34:34;;;;;;;4.55;1.75;;;31.40;32.90;;;;;;5081058;28;20029;-60
2022/08/14 10:37:06;;;;;;;3.00;1.58;;;31.50;32.20;;;;;;5080837;28;20052;-61
2022/08/14 10:39:34;;;;;;;4.80;1.92;;;31.50;31.70;;;;;;5083400;28;20044;-60
2022/08/14 10:42:12;;;;;;;3.50;1.73;;;31.60;32.60;;;;;;5079495;28;20046;-59
2022/08/14 10:44:39;;;;;;;4.00;1.70;;;31.60;32.30;;;;;;5080318;28;20025;-60
2022/08/14 10:47:09;;;;;;;2.15;1.75;;;31.70;31.70;;;;;;5080943;28;20121;-59
2022/08/14 10:49:36;;;;;;;3.88;1.75;;;31.70;32.20;;;;;;5078314;28;20035;-60
2022/08/14 10:52:07;;;;;;;1.73;1.30;;;31.80;31.40;;;;;;5077064;28;20024;-60
2022/08/14 10:54:37;;;;;;;2.10;1.63;;;31.80;30.90;;;;;;5080552;28;20509;-60
2022/08/14 10:57:23;;;;;;;3.95;1.65;;;31.70;31.40;;;;;;5072122;28;20469;-59
2022/08/14 10:59:57;;;;;;;2.42;1.20;;;31.80;31.10;;;;;;5068493;28;20068;-60
2022/08/14 11:02:29;;;;;;;3.72;1.45;;;31.80;30.90;;;;;;5067993;28;20024;-61
2022/08/14 11:04:58;;;;;;;2.33;1.52;;;31.90;31.90;;;;;;5060692;28;20029;-60
2022/08/14 11:07:24;;;;;;;2.50;0.98;;;32.00;31.60;;;;;;5048456;28;20021;-61
2022/08/14 11:10:04;;;;;;;2.30;1.20;;;32.00;31.80;;;;;;5079638;28;20033;-60
2022/08/14 11:12:46;;;;;;;1.50;1.15;;;32.10;31.70;;;;;;5066391;28;20041;-60
2022/08/14 11:15:15;;;;;;;1.85;1.27;;;32.20;30.00;;;;;;5062050;28;20040;-60
2022/08/14 11:17:42;;;;;;;2.17;1.42;;;32.30;30.40;;;;;;5066181;28;20028;-60
2022/08/14 11:20:09;;;;;;;3.72;1.40;;;32.30;30.60;;;;;;5065089;28;20048;-60
2022/08/14 11:22:39;;;;;;;1.55;1.40;;;32.50;30.60;;;;;;5068784;28;20048;-60
2022/08/14 11:25:07;;;;;;;1.92;1.40;;;32.50;30.20;;;;;;5062994;28;20058;-60
2022/08/14 11:27:33;;;;;;;2.03;1.15;;;32.60;30.40;;;;;;5076615;28;20044;-61
2022/08/14 11:30:02;;;;;;;1.35;1.20;;;32.60;30.50;;;;;;5063813;28;20053;-59
2022/08/14 11:32:29;;;;;;;1.85;1.20;;;32.70;29.80;;;;;;5072945;28;20040;-59
2022/08/14 11:34:57;;;;;;;2.30;1.30;;;32.70;30.10;;;;;;5062333;28;20112;-60
2022/08/14 11:37:23;;;;;;;1.58;1.35;;;32.70;29.80;;;;;;5069757;28;20117;-61
2022/08/14 11:39:49;;;;;;;1.77;1.67;;;32.80;29.90;;;;;;5063409;28;20043;-60
2022/08/14 11:42:24;;;;;;;2.30;1.70;;;32.90;29.90;;;;;;5071362;28;20492;-61
2022/08/14 11:44:55;;;;;;;1.80;1.30;;;33.00;28.60;;;;;;5063884;28;20020;-60
2022/08/14 11:47:21;;;;;;;4.65;2.00;;;33.00;29.60;;;;;;5055883;28;20059;-61
2022/08/14 11:49:47;;;;;;;2.10;1.27;;;33.20;29.50;;;;;;5068085;28;20077;-61
2022/08/14 11:52:14;;;;;;;2.50;1.40;;;33.30;29.40;;;;;;5060629;28;20025;-59
2022/08/14 11:54:41;;;;;;;1.25;1.15;;;33.30;28.90;;;;;;5063572;28;20036;-61
2022/08/14 11:57:16;;;;;;;1.70;1.33;;;33.40;29.00;;;;;;5080436;28;20131;-60
2022/08/14 11:59:42;;;;;;;1.40;1.30;;;33.40;28.60;;;;;;5075523;28;20059;-60
2022/08/14 12:02:15;;;;;;;1.30;1.20;;;33.60;28.70;;;;;;5080094;28;20063;-61
2022/08/14 12:04:48;;;;;;;;;;;33.60;28.00;;;;;;5080806;28;20683;-60
2022/08/14 12:07:13;;;;;;;1.17;1.08;;;33.70;28.60;;;;;;5082296;28;19912;-60
2022/08/14 12:09:39;;;;;;;2.33;1.10;;;33.80;28.60;;;;;;5081720;28;20038;-60
2022/08/14 12:12:17;;;;;;;1.40;1.30;;;33.70;28.10;;;;;;5075677;28;20139;-60
2022/08/14 12:14:56;;;;;;;1.40;1.17;;;33.70;28.60;;;;;;5086138;28;20397;-61
2022/08/14 12:17:26;;;;;;;2.08;1.20;;;33.70;27.50;;;;;;5076087;28;20021;-61
2022/08/14 12:19:58;;;;;;;3.72;1.20;;;33.80;28.00;;;;;;5081475;28;20040;-61
2022/08/14 12:22:33;;;;;;;1.35;1.10;;;33.90;28.20;;;;;;5082568;28;20039;-62
2022/08/14 12:24:59;;;;;;;3.47;1.20;;;34.00;26.60;;;;;;5081801;28;20102;-60
2022/08/14 12:27:40;;;;;;;1.40;1.20;;;34.00;28.00;;;;;;5069549;28;20041;-61
2022/08/14 12:30:06;;;;;;;1.10;1.05;;;34.00;27.80;;;;;;5080857;28;20025;-60
2022/08/14 12:32:42;;;;;;;1.63;1.05;;;34.10;27.30;;;;;;5078686;28;20021;-61
2022/08/14 12:35:09;;;;;;;4.00;1.35;;;34.20;27.50;;;;;;5082310;28;20024;-60
2022/08/14 12:37:35;;;;;;;2.00;1.42;;;34.30;27.70;;;;;;5080523;28;20052;-59
2022/08/14 12:40:12;;;;;;;2.20;1.30;;;34.40;28.30;;;;;;5102141;28;20036;-61
2022/08/14 12:42:39;;;;;;;6.47;1.20;;;34.40;26.40;;;;;;5076201;28;20140;-61
2022/08/14 12:45:05;;;;;;;1.27;1.17;;;34.50;27.10;;;;;;5101894;28;20028;-61
2022/08/14 12:47:31;;;;;;;5.10;1.63;;;34.60;27.20;;;;;;5076532;28;20096;-61
2022/08/14 12:49:57;;;;;;;2.28;1.30;;;34.60;26.90;;;;;;5080793;28;20052;-61
2022/08/14 12:52:31;;;;;;;1.83;1.33;;;34.60;27.40;;;;;;5082638;28;20032;-61
2022/08/14 12:55:09;;;;;;;2.25;1.33;;;34.50;26.90;;;;;;5065647;28;20193;-60
2022/08/14 12:57:41;;;;;;;5.63;1.75;;;34.60;26.90;;;;;;5077490;28;20088;-61
2022/08/14 13:00:16;;;;;;;1.73;1.15;;;34.70;27.30;;;;;;5083678;28;20098;-61
2022/08/14 13:02:43;;;;;;;1.23;1.13;;;34.70;26.40;;;;;;5075328;28;20026;-60
2022/08/14 13:05:14;;;;;;;1.60;1.17;;;34.80;27.10;;;;;;5089079;28;20141;-59
2022/08/14 13:07:41;;;;;;;1.33;1.13;;;34.80;26.10;;;;;;5076612;28;20040;-61
2022/08/14 13:10:13;;;;;;;1.50;0.85;;;34.90;26.10;;;;;;5088815;28;20024;-62
2022/08/14 13:12:40;;;;;;;1.52;1.27;;;35.00;25.40;;;;;;5095379;28;20100;-61
2022/08/14 13:15:07;;;;;;;2.33;1.20;;;35.00;25.60;;;;;;5088806;28;20403;-60